Time;durP1;ratioP1;P1;durP2;ratioP2;P2;SDS_P1;SDS_P2;PMS_P1;PMS_P2;Temp;Humidity;BMP_temperature;BMP_pressure;BME280_temperature;BME280_humidity;BME280_pressure;Samples;Min_cycle;Max_cycle;Signal;HPM_P1;HPM_P2
2021/04/07 00:00:52;;;;;;;;;;;19.80;56.50;;;;;;5054570;28;1291;-69
2021/04/07 00:03:18;;;;;;;;;;;19.80;56.50;;;;;;5054462;28;1898;-68
2021/04/07 00:05:44;;;;;;;;;;;19.80;56.50;;;;;;5053917;28;1360;-69
2021/04/07 00:08:09;;;;;;;;;;;19.80;56.50;;;;;;5024641;28;1943;-69
2021/04/07 00:10:39;;;;;;;;;;;19.80;56.50;;;;;;5036363;28;997;-69
2021/04/07 00:13:04;;;;;;;;;;;19.80;56.50;;;;;;5048472;28;1293;-69
2021/04/07 00:15:30;;;;;;;;;;;19.80;56.50;;;;;;5054672;28;1213;-69
2021/04/07 00:17:55;;;;;;;;;;;19.80;56.50;;;;;;5053888;28;1056;-68
2021/04/07 00:20:22;;;;;;;;;;;19.80;56.50;;;;;;5053915;28;1288;-69
2021/04/07 00:22:47;;;;;;;;;;;19.80;56.50;;;;;;5053810;28;1906;-69
2021/04/07 00:25:13;;;;;;;;;;;19.80;56.50;;;;;;5035988;28;1309;-69
2021/04/07 00:27:40;;;;;;;;;;;19.80;56.50;;;;;;5047289;28;1284;-68
2021/04/07 00:30:06;;;;;;;;;;;19.80;56.60;;;;;;5036392;28;1208;-69
2021/04/07 00:32:31;;;;;;;;;;;19.70;56.50;;;;;;5029061;28;1177;-69
2021/04/07 00:34:57;;;;;;;;;;;19.70;56.50;;;;;;5050496;28;1290;-68
2021/04/07 00:37:23;;;;;;;;;;;19.70;56.50;;;;;;5030128;28;1292;-69
2021/04/07 00:39:48;;;;;;;;;;;19.70;56.50;;;;;;5030962;28;1312;-69
2021/04/07 00:42:13;;;;;;;;;;;19.70;56.50;;;;;;5046043;28;1267;-69
2021/04/07 00:44:39;;;;;;;;;;;19.70;56.60;;;;;;5046490;28;1902;-69
2021/04/07 00:47:04;;;;;;;;;;;19.70;56.60;;;;;;5027560;28;1241;-69
2021/04/07 00:49:30;;;;;;;;;;;19.70;56.60;;;;;;5029161;28;1346;-69
2021/04/07 00:51:55;;;;;;;;;;;19.70;56.60;;;;;;5045551;28;1395;-69
2021/04/07 00:54:21;;;;;;;;;;;19.70;56.60;;;;;;5031992;28;1420;-69
2021/04/07 00:56:47;;;;;;;;;;;19.70;56.60;;;;;;5028985;28;1414;-69
2021/04/07 00:59:13;;;;;;;;;;;19.70;56.60;;;;;;5046140;28;1150;-68
2021/04/07 01:01:38;;;;;;;;;;;19.70;56.60;;;;;;5011121;28;1393;-70
2021/04/07 01:04:04;;;;;;;;;;;19.70;56.60;;;;;;5030668;28;2037;-69
2021/04/07 01:06:29;;;;;;;;;;;19.70;56.60;;;;;;5045664;28;1256;-69
2021/04/07 01:08:56;;;;;;;;;;;19.70;56.60;;;;;;5033476;28;1359;-68
2021/04/07 01:11:21;;;;;;;;;;;19.70;56.60;;;;;;5027481;28;1229;-69
2021/04/07 01:13:46;;;;;;;;;;;19.70;56.60;;;;;;5047924;28;1370;-69
2021/04/07 01:16:12;;;;;;;;;;;19.70;56.60;;;;;;5031707;28;1241;-70
2021/04/07 01:18:37;;;;;;;;;;;19.70;56.60;;;;;;5029911;28;1458;-69
2021/04/07 01:21:03;;;;;;;;;;;19.70;56.60;;;;;;5027490;28;1255;-69
2021/04/07 01:23:28;;;;;;;;;;;19.70;56.70;;;;;;5030197;28;1965;-70
2021/04/07 01:25:54;;;;;;;;;;;19.70;56.70;;;;;;5046586;28;1244;-70
2021/04/07 01:28:19;;;;;;;;;;;19.70;56.70;;;;;;5029827;28;1240;-69
2021/04/07 01:30:48;;;;;;;;;;;19.70;56.70;;;;;;5026790;28;1249;-68
2021/04/07 01:33:22;;;;;;;;;;;19.70;56.70;;;;;;5047184;28;1387;-69
2021/04/07 01:35:48;;;;;;;;;;;19.60;56.60;;;;;;5044102;28;1277;-70
2021/04/07 01:38:14;;;;;;;;;;;19.60;56.60;;;;;;5027243;28;1197;-70
2021/04/07 01:40:40;;;;;;;;;;;19.60;56.60;;;;;;5044382;28;1283;-70
2021/04/07 01:43:06;;;;;;;;;;;19.60;56.60;;;;;;5029570;28;1961;-70
2021/04/07 01:45:31;;;;;;;;;;;19.60;56.60;;;;;;5028113;28;1221;-69
2021/04/07 01:47:57;;;;;;;;;;;19.60;56.60;;;;;;5031612;28;1208;-70
2021/04/07 01:50:22;;;;;;;;;;;19.70;56.60;;;;;;5047155;28;1236;-71
2021/04/07 01:52:47;;;;;;;;;;;19.70;56.60;;;;;;5044612;28;1288;-69
2021/04/07 01:55:13;;;;;;;;;;;19.70;56.60;;;;;;5044486;28;1286;-70
2021/04/07 01:57:38;;;;;;;;;;;19.70;56.60;;;;;;5045106;28;1244;-71
2021/04/07 02:00:06;;;;;;;;;;;19.70;56.50;;;;;;5043824;28;1319;-69
2021/04/07 02:02:31;;;;;;;;;;;19.70;56.50;;;;;;5011004;28;1906;-68
2021/04/07 02:04:57;;;;;;;;;;;19.70;56.50;;;;;;5045982;28;1282;-69
2021/04/07 02:07:22;;;;;;;;;;;19.70;56.50;;;;;;5046972;28;1260;-69
2021/04/07 02:09:48;;;;;;;;;;;19.70;56.50;;;;;;5031834;28;1307;-69
2021/04/07 02:12:13;;;;;;;;;;;19.70;56.50;;;;;;5029763;28;1161;-69
2021/04/07 02:14:39;;;;;;;;;;;19.70;56.40;;;;;;5044055;28;1283;-70
2021/04/07 02:17:04;;;;;;;;;;;19.70;56.40;;;;;;5026105;28;1335;-69
2021/04/07 02:19:31;;;;;;;;;;;19.70;56.40;;;;;;5026018;28;1284;-69
2021/04/07 02:22:01;;;;;;;;;;;19.70;56.40;;;;;;5026809;28;1237;-69
2021/04/07 02:24:27;;;;;;;;;;;19.80;56.40;;;;;;5070513;22;3682;-69
2021/04/07 02:26:52;;;;;;;;;;;19.70;56.40;;;;;;5070015;28;1180;-68
2021/04/07 02:29:17;;;;;;;;;;;19.70;56.40;;;;;;5064918;28;1232;-69
2021/04/07 02:31:43;;;;;;;;;;;19.70;56.40;;;;;;5063840;28;1302;-69
2021/04/07 02:34:08;;;;;;;;;;;19.80;56.40;;;;;;5061348;28;1271;-69
2021/04/07 02:36:34;;;;;;;;;;;19.70;56.30;;;;;;5060750;28;1192;-68
2021/04/07 02:38:59;;;;;;;;;;;19.80;56.40;;;;;;5061314;28;1432;-69
2021/04/07 02:41:25;;;;;;;;;;;19.80;56.30;;;;;;5069111;28;1200;-68
2021/04/07 02:43:50;;;;;;;;;;;19.90;56.30;;;;;;5072024;28;1913;-68
2021/04/07 02:46:16;;;;;;;;;;;19.90;56.10;;;;;;5072664;28;1394;-69
2021/04/07 02:48:41;;;;;;;;;;;20.00;55.90;;;;;;5054883;28;1364;-68
2021/04/07 02:51:07;;;;;;;;;;;20.10;55.70;;;;;;5073188;28;1664;-69
2021/04/07 02:53:32;;;;;;;;;;;20.30;55.50;;;;;;5070505;28;1271;-69
2021/04/07 02:55:58;;;;;;;;;;;20.40;55.90;;;;;;5060092;28;1190;-69
2021/04/07 02:58:23;;;;;;;;;;;20.40;55.10;;;;;;5064833;28;1211;-70
2021/04/07 03:00:48;;;;;;;;;;;20.60;54.90;;;;;;5030886;28;1350;-70
2021/04/07 03:03:14;;;;;;;;;;;20.60;54.70;;;;;;5041479;28;1961;-70
2021/04/07 03:05:39;;;;;;;;;;;20.70;54.60;;;;;;5060675;28;1279;-69
2021/04/07 03:08:05;;;;;;;;;;;20.80;54.40;;;;;;5041944;28;1224;-69
2021/04/07 03:10:30;;;;;;;;;;;20.80;54.20;;;;;;5044137;28;1216;-69
2021/04/07 03:12:56;;;;;;;;;;;20.90;54.10;;;;;;5062064;28;1279;-70
2021/04/07 03:15:24;;;;;;;;;;;21.00;54.00;;;;;;5059685;28;1449;-69
2021/04/07 03:17:50;;;;;;;;;;;21.00;53.80;;;;;;5042219;28;1256;-70
2021/04/07 03:20:15;;;;;;;;;;;21.00;53.70;;;;;;5062536;28;1227;-69
2021/04/07 03:22:41;;;;;;;;;;;21.10;53.60;;;;;;5041847;28;1872;-69
2021/04/07 03:25:06;;;;;;;;;;;21.10;53.50;;;;;;5046125;28;1227;-71
2021/04/07 03:27:32;;;;;;;;;;;21.20;53.50;;;;;;5044826;28;1677;-70
2021/04/07 03:29:58;;;;;;;;;;;21.20;53.50;;;;;;5062425;28;1165;-69
2021/04/07 03:32:27;;;;;;;;;;;21.20;53.40;;;;;;5050943;28;1448;-70
2021/04/07 03:34:52;;;;;;;;;;;21.30;53.30;;;;;;5067676;28;1295;-69
2021/04/07 03:37:21;;;;;;;;;;;21.30;53.30;;;;;;5067362;28;1385;-69
2021/04/07 03:39:46;;;;;;;;;;;21.30;53.20;;;;;;5068837;28;1300;-69
2021/04/07 03:42:12;;;;;;;;;;;21.30;53.20;;;;;;5063203;28;1418;-69
2021/04/07 03:44:37;;;;;;;;;;;21.30;53.20;;;;;;5064001;28;1910;-70
2021/04/07 03:47:02;;;;;;;;;;;21.30;53.20;;;;;;5066149;28;1227;-70
2021/04/07 03:49:31;;;;;;;;;;;21.40;53.20;;;;;;5074929;28;1199;-69
2021/04/07 03:51:56;;;;;;;;;;;21.40;53.20;;;;;;5075818;28;1492;-69
2021/04/07 03:54:22;;;;;;;;;;;21.40;53.10;;;;;;5075933;28;1703;-68
2021/04/07 03:56:47;;;;;;;;;;;21.40;53.20;;;;;;5075890;28;1669;-69
2021/04/07 03:59:13;;;;;;;;;;;21.40;53.20;;;;;;5057476;28;1669;-68
2021/04/07 04:01:38;;;;;;;;;;;21.40;53.20;;;;;;5075677;28;1608;-68
2021/04/07 04:04:04;;;;;;;;;;;21.40;53.20;;;;;;5075759;28;1898;-69
2021/04/07 04:06:29;;;;;;;;;;;21.40;53.20;;;;;;5075602;28;1672;-68
2021/04/07 04:08:54;;;;;;;;;;;21.40;53.20;;;;;;5057618;28;1391;-70
2021/04/07 04:11:20;;;;;;;;;;;21.40;53.30;;;;;;5075481;28;1623;-70
2021/04/07 04:13:45;;;;;;;;;;;21.40;53.30;;;;;;5075347;28;1539;-70
2021/04/07 04:16:11;;;;;;;;;;;21.30;53.30;;;;;;5075570;28;1606;-70
2021/04/07 04:18:38;;;;;;;;;;;21.30;53.30;;;;;;5057411;28;1635;-70
2021/04/07 04:21:03;;;;;;;;;;;21.30;53.40;;;;;;5075423;28;1658;-69
2021/04/07 04:23:29;;;;;;;;;;;21.30;53.40;;;;;;5075213;28;1902;-69
2021/04/07 04:25:54;;;;;;;;;;;21.30;53.40;;;;;;5075377;28;1401;-69
2021/04/07 04:28:19;;;;;;;;;;;21.30;53.50;;;;;;5074766;28;1390;-69
2021/04/07 04:30:45;;;;;;;;;;;21.20;53.50;;;;;;5075303;28;1636;-69
2021/04/07 04:33:11;;;;;;;;;;;21.20;53.50;;;;;;5075428;28;1463;-69
2021/04/07 04:35:36;;;;;;;;;;;21.20;53.60;;;;;;5075141;28;1699;-68
2021/04/07 04:38:02;;;;;;;;;;;21.20;54.20;;;;;;5074798;28;1667;-69
2021/04/07 04:40:27;;;;;;;;;;;21.20;53.70;;;;;;5075128;28;1603;-69
2021/04/07 04:42:52;;;;;;;;;;;21.20;53.70;;;;;;5074683;28;1984;-69
2021/04/07 04:45:18;;;;;;;;;;;21.10;53.70;;;;;;5074895;28;1422;-69
2021/04/07 04:47:43;;;;;;;;;;;21.10;54.00;;;;;;5056808;28;1452;-68
2021/04/07 04:50:09;;;;;;;;;;;21.10;53.80;;;;;;5074961;28;1557;-68
2021/04/07 04:52:35;;;;;;;;;;;21.10;53.90;;;;;;5040160;28;1617;-69
2021/04/07 04:55:00;;;;;;;;;;;21.10;54.00;;;;;;5057068;28;1667;-68
2021/04/07 04:57:26;;;;;;;;;;;21.10;54.00;;;;;;5056635;28;1393;-69
2021/04/07 04:59:51;;;;;;;;;;;21.10;54.00;;;;;;5056822;28;1372;-69
2021/04/07 05:02:17;;;;;;;;;;;21.00;54.00;;;;;;5056611;28;1422;-68
2021/04/07 05:04:42;;;;;;;;;;;21.00;54.10;;;;;;5074631;28;1890;-69
2021/04/07 05:07:07;;;;;;;;;;;21.00;54.10;;;;;;5074354;28;1514;-69
2021/04/07 05:09:33;;;;;;;;;;;21.00;54.10;;;;;;5074563;28;1436;-69
2021/04/07 05:11:58;;;;;;;;;;;21.00;54.10;;;;;;5074241;28;1620;-69
2021/04/07 05:14:24;;;;;;;;;;;21.00;54.10;;;;;;5071583;28;1466;-68
2021/04/07 05:16:49;;;;;;;;;;;21.00;54.10;;;;;;5059234;28;2129;-68
2021/04/07 05:19:15;;;;;;;;;;;21.00;54.10;;;;;;5065463;28;1364;-68
2021/04/07 05:21:40;;;;;;;;;;;21.10;54.10;;;;;;5047081;28;1595;-68
2021/04/07 05:24:06;;;;;;;;;;;21.10;54.00;;;;;;5055857;28;1898;-68
2021/04/07 05:26:32;;;;;;;;;;;21.10;54.00;;;;;;5073854;28;1705;-68
2021/04/07 05:28:57;;;;;;;;;;;21.10;53.90;;;;;;5073663;28;1313;-67
2021/04/07 05:31:22;;;;;;;;;;;21.10;53.90;;;;;;5055601;28;1312;-68
2021/04/07 05:33:48;;;;;;;;;;;21.10;53.90;;;;;;5073962;28;1695;-69
2021/04/07 05:36:14;;;;;;;;;;;21.10;53.80;;;;;;5073810;28;1270;-69
2021/04/07 05:38:39;;;;;;;;;;;21.10;53.80;;;;;;5044855;28;1456;-69
2021/04/07 05:41:05;;;;;;;;;;;21.20;53.90;;;;;;5070399;28;1425;-69
2021/04/07 05:43:31;;;;;;;;;;;21.10;53.90;;;;;;5056175;28;1906;-68
2021/04/07 05:45:56;;;;;;;;;;;21.10;53.90;;;;;;5055657;28;1654;-68
2021/04/07 05:48:22;;;;;;;;;;;21.10;53.90;;;;;;5071716;28;1434;-69
2021/04/07 05:50:48;;;;;;;;;;;21.10;53.90;;;;;;5052505;28;1427;-69
2021/04/07 05:53:14;;;;;;;;;;;21.10;54.00;;;;;;5053876;28;1132;-68
2021/04/07 05:55:42;;;;;;;;;;;21.10;54.00;;;;;;5072634;28;1683;-69
2021/04/07 05:58:08;;;;;;;;;;;21.10;54.00;;;;;;5055440;28;1456;-68
2021/04/07 06:00:34;;;;;;;;;;;21.10;54.00;;;;;;5055565;28;1666;-68
2021/04/07 06:03:00;;;;;;;;;;;21.10;54.10;;;;;;5073235;28;1963;-67
2021/04/07 06:05:27;;;;;;;;;;;21.00;54.00;;;;;;5073466;28;1466;-68
2021/04/07 06:07:53;;;;;;;;;;;21.10;54.10;;;;;;5073115;28;1595;-69
2021/04/07 06:10:18;;;;;;;;;;;21.00;54.10;;;;;;5045707;28;1377;-66
2021/04/07 06:12:44;;;;;;;;;;;21.00;54.10;;;;;;5073133;28;1559;-67
2021/04/07 06:15:10;;;;;;;;;;;21.00;54.10;;;;;;5069033;28;1725;-66
2021/04/07 06:17:36;;;;;;;;;;;21.00;54.20;;;;;;5054691;28;1585;-67
2021/04/07 06:20:03;;;;;;;;;;;21.00;54.20;;;;;;5060455;28;1422;-70
2021/04/07 06:22:29;;;;;;;;;;;21.00;54.20;;;;;;5048585;28;1429;-70
2021/04/07 06:24:54;;;;;;;;;;;21.00;54.30;;;;;;5071821;28;1902;-69
2021/04/07 06:27:20;;;;;;;;;;;20.90;54.30;;;;;;5072426;28;1599;-67
2021/04/07 06:29:45;;;;;;;;;;;20.90;54.30;;;;;;5073036;28;810;-68
2021/04/07 06:32:10;;;;;;;;;;;20.90;54.30;;;;;;5062284;28;1456;-69
2021/04/07 06:34:36;;;;;;;;;;;20.90;54.40;;;;;;5056013;28;1284;-69
2021/04/07 06:37:01;;;;;;;;;;;20.90;54.40;;;;;;5055142;28;973;-69
2021/04/07 06:39:27;;;;;;;;;;;20.90;54.40;;;;;;5038237;28;1692;-70
2021/04/07 06:41:52;;;;;;;;;;;20.80;54.50;;;;;;5072840;28;1419;-70
2021/04/07 06:44:18;;;;;;;;;;;20.80;54.50;;;;;;5054755;28;1909;-70
2021/04/07 06:46:43;;;;;;;;;;;20.80;54.60;;;;;;5055169;28;1371;-70
2021/04/07 06:49:09;;;;;;;;;;;20.80;54.60;;;;;;5054673;28;1675;-71
2021/04/07 06:51:34;;;;;;;;;;;20.80;54.60;;;;;;5054810;28;1403;-71
2021/04/07 06:53:59;;;;;;;;;;;20.80;54.60;;;;;;5054812;28;1697;-71
2021/04/07 06:56:25;;;;;;;;;;;20.70;54.60;;;;;;5054921;28;1770;-70
2021/04/07 06:58:50;;;;;;;;;;;20.80;54.70;;;;;;5054654;28;1389;-71
2021/04/07 07:01:16;;;;;;;;;;;20.70;54.70;;;;;;5054963;28;1612;-70
2021/04/07 07:03:41;;;;;;;;;;;20.80;54.80;;;;;;5072817;28;1898;-70
2021/04/07 07:06:07;;;;;;;;;;;20.70;54.70;;;;;;5073925;28;1760;-70
2021/04/07 07:08:32;;;;;;;;;;;20.70;54.70;;;;;;5058577;28;1604;-71
2021/04/07 07:11:07;;;;;;;;;;;20.70;54.80;;;;;;5058939;28;1359;-69
2021/04/07 07:13:33;;;;;;;;;;;20.70;55.40;;;;;;5058089;28;1742;-70
2021/04/07 07:15:58;;;;;;;;;;;20.70;54.80;;;;;;5076578;28;1370;-70
2021/04/07 07:18:25;;;;;;;;;;;20.70;54.90;;;;;;5076188;28;1651;-70
2021/04/07 07:20:50;;;;;;;;;;;20.60;54.80;;;;;;5058623;28;1389;-69
2021/04/07 07:23:22;;;;;;;;;;;20.60;54.90;;;;;;5062596;28;1967;-69
2021/04/07 07:26:14;;;;;;;;;;;20.60;54.90;;;;;;5058590;28;796;-69
2021/04/07 07:28:39;;;;;;;;;;;20.60;54.90;;;;;;5059388;28;1454;-69
2021/04/07 07:31:24;;;;;;;;;;;20.60;54.90;;;;;;5071970;28;1392;-70
2021/04/07 07:33:53;;;;;;;;;;;20.60;55.00;;;;;;5076355;28;1381;-70
2021/04/07 07:36:18;;;;;;;;;;;20.60;55.00;;;;;;5058471;28;1703;-71
2021/04/07 07:38:48;;;;;;;;;;;20.60;55.60;;;;;;5058059;28;1343;-69
2021/04/07 07:41:13;;;;;;;;;;;20.60;55.00;;;;;;5058243;28;1659;-70
2021/04/07 07:43:41;;;;;;;;;;;20.60;55.10;;;;;;5075990;28;1898;-69
2021/04/07 07:46:16;;;;;;;;;;;20.50;55.00;;;;;;5075951;28;1602;-70
2021/04/07 07:48:41;;;;;;;;;;;20.50;55.10;;;;;;5058041;28;1683;-69
2021/04/07 07:51:25;;;;;;;;;;;20.50;55.10;;;;;;5058292;28;1601;-69
2021/04/07 07:53:52;;;;;;;;;;;20.50;55.10;;;;;;5075887;28;1297;-68
2021/04/07 07:56:18;;;;;;;;;;;20.50;55.10;;;;;;5049228;28;1485;-69
2021/04/07 07:58:48;;;;;;;;;;;20.50;55.10;;;;;;5036526;28;1622;-69
2021/04/07 08:01:14;;;;;;;;;;;20.50;55.20;;;;;;5076067;28;790;-70
2021/04/07 08:03:40;;;;;;;;;;;20.50;55.20;;;;;;5075677;28;1956;-69
2021/04/07 08:06:05;;;;;;;;;;;20.40;55.80;;;;;;5075729;28;1469;-69
2021/04/07 08:08:31;;;;;;;;;;;20.50;55.30;;;;;;5075512;28;875;-69
2021/04/07 08:10:56;;;;;;;;;;;20.40;55.20;;;;;;5075745;28;1671;-69
2021/04/07 08:13:22;;;;;;;;;;;20.40;55.30;;;;;;5075305;28;1611;-69
2021/04/07 08:15:48;;;;;;;;;;;20.40;55.30;;;;;;5057479;28;1696;-68
2021/04/07 08:18:14;;;;;;;;;;;20.40;55.30;;;;;;5056475;28;1408;-70
2021/04/07 08:20:39;;;;;;;;;;;20.40;55.40;;;;;;5057424;28;1291;-69
2021/04/07 08:23:05;;;;;;;;;;;20.40;55.40;;;;;;5057498;28;1915;-69
2021/04/07 08:25:30;;;;;;;;;;;20.40;55.40;;;;;;5065225;22;2386;-69
2021/04/07 08:27:56;;;;;;;;;;;20.40;55.40;;;;;;5052095;28;1484;-69
2021/04/07 08:30:22;;;;;;;;;;;20.40;55.40;;;;;;5054074;28;1188;-69
2021/04/07 08:32:48;;;;;;;;;;;20.40;55.40;;;;;;5055211;28;1703;-71
2021/04/07 08:35:13;;;;;;;;;;;20.40;55.40;;;;;;5052845;28;1369;-70
2021/04/07 08:37:39;;;;;;;;;;;20.40;55.50;;;;;;5035821;28;1539;-70
2021/04/07 08:40:08;;;;;;;;;;;20.40;55.50;;;;;;5054828;28;1377;-69
2021/04/07 08:42:33;;;;;;;;;;;20.40;55.50;;;;;;5053262;28;1650;-66
2021/04/07 08:45:03;;;;;;;;;;;20.30;55.50;;;;;;5053602;28;1906;-67
2021/04/07 08:47:30;;;;;;;;;;;20.30;55.50;;;;;;5054543;28;1688;-67
2021/04/07 08:50:02;;;;;;;;;;;20.30;55.50;;;;;;5055048;28;1312;-68
2021/04/07 08:52:28;;;;;;;;;;;20.30;55.50;;;;;;5054660;28;1423;-67
2021/04/07 08:54:56;;;;;;;;;;;20.30;55.50;;;;;;5054633;28;1383;-67
2021/04/07 08:57:22;;;;;;;;;;;20.30;55.60;;;;;;5054095;28;1772;-67
2021/04/07 08:59:51;;;;;;;;;;;20.30;55.60;;;;;;5054815;28;1659;-67
2021/04/07 09:02:16;;;;;;;;;;;20.30;55.60;;;;;;5054489;28;1737;-67
2021/04/07 09:04:42;;;;;;;;;;;20.30;55.60;;;;;;5054442;28;1949;-67
2021/04/07 09:07:11;;;;;;;;;;;20.30;55.60;;;;;;5053008;28;1546;-67
2021/04/07 09:09:36;;;;;;;;;;;20.30;55.70;;;;;;5053134;28;1194;-68
2021/04/07 09:12:02;;;;;;;;;;;20.30;55.70;;;;;;5054350;28;1509;-69
2021/04/07 09:14:27;;;;;;;;;;;20.30;55.70;;;;;;5052325;28;1490;-70
2021/04/07 09:17:00;;;;;;;;;;;20.20;55.70;;;;;;5036731;28;1430;-70
2021/04/07 09:19:30;;;;;;;;;;;20.20;55.60;;;;;;5052904;28;1691;-70
2021/04/07 09:22:06;;;;;;;;;;;20.20;55.70;;;;;;5049024;28;2127;-70
2021/04/07 09:24:35;;;;;;;;;;;20.20;55.70;;;;;;5047109;28;1991;-70
2021/04/07 09:27:01;;;;;;;;;;;20.20;55.70;;;;;;5050845;28;1570;-70
2021/04/07 09:29:26;;;;;;;;;;;20.20;55.80;;;;;;5052934;28;1636;-69
2021/04/07 09:31:52;;;;;;;;;;;20.20;55.80;;;;;;5054186;28;1385;-71
2021/04/07 09:34:17;;;;;;;;;;;20.20;55.80;;;;;;5053794;28;1506;-70
2021/04/07 09:36:45;;;;;;;;;;;20.20;55.80;;;;;;5052832;28;1385;-69
2021/04/07 09:39:11;;;;;;;;;;;20.20;55.80;;;;;;5053713;28;1640;-70
2021/04/07 09:41:37;;;;;;;;;;;20.20;55.80;;;;;;5054023;28;1689;-70
2021/04/07 09:44:04;;;;;;;;;;;20.20;55.80;;;;;;5053785;28;1902;-70
2021/04/07 09:46:30;;;;;;;;;;;20.20;55.80;;;;;;5053453;28;1643;-71
2021/04/07 09:48:58;;;;;;;;;;;20.20;55.80;;;;;;5035352;28;1328;-70
2021/04/07 09:51:27;;;;;;;;;;;20.20;55.80;;;;;;5053702;28;1334;-69
2021/04/07 09:53:53;;;;;;;;;;;20.20;55.80;;;;;;5053265;28;1472;-71
2021/04/07 09:56:18;;;;;;;;;;;20.20;56.40;;;;;;5052450;28;1405;-71
2021/04/07 09:58:45;;;;;;;;;;;20.20;55.90;;;;;;5053264;28;1393;-71
2021/04/07 10:01:12;;;;;;;;;;;20.20;55.90;;;;;;5052268;28;1693;-71
2021/04/07 10:03:42;;;;;;;;;;;20.20;55.90;;;;;;5052046;28;1902;-69
2021/04/07 10:06:16;;;;;;;;;;;20.20;55.90;;;;;;5052177;28;1382;-70
2021/04/07 10:08:41;;;;;;;;;;;20.20;55.90;;;;;;5051800;28;1372;-71
2021/04/07 10:11:08;;;;;;;;;;;20.20;55.90;;;;;;5053402;28;1361;-72
2021/04/07 10:13:33;;;;;;;;;;;20.20;55.90;;;;;;5047741;28;2047;-70
2021/04/07 10:15:58;;;;;;;;;;;20.10;55.80;;;;;;5051125;28;2054;-68
2021/04/07 10:18:24;;;;;;;;;;;20.20;55.90;;;;;;5051169;28;1633;-67
2021/04/07 10:20:49;;;;;;;;;;;20.10;55.90;;;;;;5051125;28;1373;-69
2021/04/07 10:23:17;;;;;;;;;;;20.10;55.90;;;;;;5052819;28;1973;-69
2021/04/07 10:25:42;;;;;;;;;;;20.10;55.90;;;;;;5050672;28;2006;-67
2021/04/07 10:28:16;;;;;;;;;;;20.10;55.90;;;;;;5040389;28;1564;-68
2021/04/07 10:30:42;;;;;;;;;;;20.10;55.90;;;;;;5052797;28;1378;-71
2021/04/07 10:33:08;;;;;;;;;;;20.10;55.90;;;;;;5049604;28;1453;-71
2021/04/07 10:35:35;;;;;;;;;;;20.10;55.90;;;;;;5047172;28;1341;-71
2021/04/07 10:38:05;;;;;;;;;;;20.10;55.90;;;;;;5051396;28;1530;-71
2021/04/07 10:40:34;;;;;;;;;;;20.10;55.90;;;;;;5047790;28;1461;-71
2021/04/07 10:43:15;;;;;;;;;;;20.10;55.90;;;;;;5044802;28;1926;-70
2021/04/07 10:45:44;;;;;;;;;;;20.10;55.90;;;;;;5052589;28;1519;-71
2021/04/07 10:48:10;;;;;;;;;;;20.10;55.90;;;;;;5049596;28;1251;-71
2021/04/07 10:50:36;;;;;;;;;;;20.10;55.90;;;;;;5048907;28;1304;-70
2021/04/07 10:53:02;;;;;;;;;;;20.10;55.90;;;;;;5049440;28;1633;-70
2021/04/07 10:55:28;;;;;;;;;;;20.10;55.90;;;;;;5049138;28;1367;-70
2021/04/07 10:57:54;;;;;;;;;;;20.10;55.90;;;;;;5048033;28;1366;-69
2021/04/07 11:00:32;;;;;;;;;;;20.10;55.90;;;;;;5050411;28;1458;-71
2021/04/07 11:02:58;;;;;;;;;;;20.10;55.90;;;;;;5041244;28;1902;-69
2021/04/07 11:05:24;;;;;;;;;;;20.10;56.00;;;;;;5042063;28;1382;-71
2021/04/07 11:08:02;;;;;;;;;;;20.10;55.90;;;;;;5039815;28;1293;-71
2021/04/07 11:10:34;;;;;;;;;;;20.10;55.90;;;;;;5043312;28;1274;-69
2021/04/07 11:13:00;;;;;;;;;;;20.10;56.00;;;;;;5022249;28;1164;-71
2021/04/07 11:15:25;;;;;;;;;;;20.10;56.00;;;;;;5031196;28;1407;-70
2021/04/07 11:17:51;;;;;;;;;;;20.10;56.00;;;;;;5040512;28;1872;-72
2021/04/07 11:20:17;;;;;;;;;;;20.10;56.00;;;;;;5043385;28;1935;-71
2021/04/07 11:22:42;;;;;;;;;;;20.10;56.00;;;;;;5039712;28;1962;-68
2021/04/07 11:25:08;;;;;;;;;;;20.10;56.00;;;;;;5047898;28;1988;-72
2021/04/07 11:27:34;;;;;;;;;;;20.10;56.00;;;;;;5050076;28;1654;-72
2021/04/07 11:29:59;;;;;;;;;;;20.10;56.00;;;;;;5052456;28;1357;-71
2021/04/07 11:32:25;;;;;;;;;;;20.10;56.00;;;;;;5034242;28;1549;-72
2021/04/07 11:34:59;;;;;;;;;;;20.10;56.00;;;;;;5052453;28;1370;-73
2021/04/07 11:40:11;;;;;;;;;;;20.10;56.00;;;;;;5042352;28;1536;-73
2021/04/07 11:45:02;;;;;;;;;;;20.10;56.00;;;;;;5052028;28;1906;-72
2021/04/07 11:47:28;;;;;;;;;;;20.10;56.00;;;;;;5051588;28;1277;-70
2021/04/07 11:49:53;;;;;;;;;;;20.10;56.00;;;;;;5050821;28;1362;-69
2021/04/07 11:52:19;;;;;;;;;;;20.10;56.00;;;;;;5052096;28;1741;-71
2021/04/07 11:54:45;;;;;;;;;;;20.10;56.60;;;;;;5055528;28;1320;-71
2021/04/07 11:57:11;;;;;;;;;;;20.10;56.00;;;;;;5054345;28;1657;-71
2021/04/07 11:59:36;;;;;;;;;;;20.00;55.90;;;;;;5048211;28;1459;-71
2021/04/07 12:02:02;;;;;;;;;;;20.10;56.00;;;;;;5049799;28;1355;-69
2021/04/07 12:04:28;;;;;;;;;;;20.10;56.00;;;;;;5045346;28;1894;-71
2021/04/07 12:06:57;;;;;;;;;;;20.10;56.00;;;;;;5045628;28;1611;-68
2021/04/07 12:09:23;;;;;;;;;;;20.10;55.90;;;;;;5048325;28;1375;-69
2021/04/07 12:11:48;;;;;;;;;;;20.10;55.90;;;;;;5049583;28;1754;-69
2021/04/07 12:14:13;;;;;;;;;;;20.20;55.80;;;;;;5045922;28;1520;-70
2021/04/07 12:16:39;;;;;;;;;;;20.30;55.60;;;;;;5047354;28;1333;-68
2021/04/07 12:19:05;;;;;;;;;;;20.40;55.50;;;;;;5046972;28;1417;-67
2021/04/07 12:21:30;;;;;;;;;;;20.40;55.30;;;;;;5049303;28;1600;-68
2021/04/07 12:23:56;;;;;;;;;;;20.50;55.10;;;;;;5047231;28;2195;-69
2021/04/07 12:26:21;;;;;;;;;;;20.60;54.90;;;;;;5046585;28;1782;-68
2021/04/07 12:28:47;;;;;;;;;;;20.70;54.80;;;;;;5043907;28;1685;-68
2021/04/07 12:31:13;;;;;;;;;;;20.80;54.60;;;;;;5043383;28;1548;-69
2021/04/07 12:33:40;;;;;;;;;;;20.80;54.40;;;;;;5043894;28;1567;-69
2021/04/07 12:36:06;;;;;;;;;;;20.90;54.30;;;;;;5043573;28;1486;-68
2021/04/07 12:38:32;;;;;;;;;;;20.90;54.10;;;;;;5044289;28;1564;-69
2021/04/07 12:40:59;;;;;;;;;;;21.00;54.00;;;;;;5044778;28;1602;-67
2021/04/07 12:43:25;;;;;;;;;;;21.00;53.90;;;;;;5044792;28;1925;-68
2021/04/07 12:45:50;;;;;;;;;;;21.10;53.90;;;;;;5046143;28;1746;-67
2021/04/07 12:48:19;;;;;;;;;;;21.10;53.80;;;;;;5047622;28;1870;-67
2021/04/07 12:50:45;;;;;;;;;;;21.20;53.70;;;;;;5048465;28;1853;-69
2021/04/07 12:53:10;;;;;;;;;;;21.20;53.60;;;;;;5043432;28;1570;-69
2021/04/07 12:55:36;;;;;;;;;;;21.20;53.60;;;;;;5052924;28;1355;-68
2021/04/07 12:58:01;;;;;;;;;;;21.20;53.50;;;;;;5052973;28;1309;-68
2021/04/07 13:00:27;;;;;;;;;;;21.30;53.50;;;;;;5053666;28;1508;-68
2021/04/07 13:02:53;;;;;;;;;;;21.30;53.50;;;;;;5052616;28;1270;-67
2021/04/07 13:05:18;;;;;;;;;;;21.30;53.40;;;;;;5046003;28;1902;-69
2021/04/07 13:07:44;;;;;;;;;;;21.30;53.40;;;;;;5043059;28;1646;-69
2021/04/07 13:10:09;;;;;;;;;;;21.30;53.40;;;;;;5042321;28;1223;-69
2021/04/07 13:12:35;;;;;;;;;;;21.30;53.30;;;;;;5044792;28;1175;-69
2021/04/07 13:15:00;;;;;;;;;;;21.40;53.40;;;;;;5048199;28;1303;-70
2021/04/07 13:17:26;;;;;;;;;;;21.40;53.40;;;;;;5047518;28;1183;-67
2021/04/07 13:19:55;;;;;;;;;;;21.40;53.30;;;;;;5054282;28;1141;-67
2021/04/07 13:22:21;;;;;;;;;;;21.40;53.30;;;;;;5053636;28;1234;-67
2021/04/07 13:24:46;;;;;;;;;;;21.40;53.30;;;;;;5053625;28;1906;-67
2021/04/07 13:27:12;;;;;;;;;;;21.40;53.30;;;;;;5053569;28;1239;-68
2021/04/07 13:29:38;;;;;;;;;;;21.40;53.40;;;;;;5052529;28;1258;-70
2021/04/07 13:32:06;;;;;;;;;;;21.40;53.40;;;;;;5053735;28;1346;-70
2021/04/07 13:34:37;;;;;;;;;;;21.40;53.40;;;;;;5053635;28;1339;-70
2021/04/07 13:37:18;;;;;;;;;;;21.40;53.40;;;;;;5053848;28;1228;-70
2021/04/07 13:39:53;;;;;;;;;;;21.30;53.40;;;;;;5053919;28;1353;-70
2021/04/07 13:43:03;;;;;;;;;;;21.30;53.40;;;;;;5053525;28;1357;-70
2021/04/07 13:45:04;;;;;;;;;;;21.30;53.40;;;;;;5046047;28;1960;-70
2021/04/07 13:47:30;;;;;;;;;;;21.30;53.50;;;;;;5053202;28;1114;-69
2021/04/07 13:49:55;;;;;;;;;;;21.30;53.50;;;;;;5052369;28;1275;-69
2021/04/07 13:52:20;;;;;;;;;;;21.30;53.60;;;;;;5053474;28;1074;-68
2021/04/07 13:54:46;;;;;;;;;;;21.30;53.60;;;;;;5052095;28;1395;-68
2021/04/07 13:57:20;;;;;;;;;;;21.30;53.60;;;;;;5053104;28;1384;-68
2021/04/07 13:59:45;;;;;;;;;;;21.20;53.60;;;;;;5036626;28;1384;-69
2021/04/07 14:02:11;;;;;;;;;;;21.20;53.70;;;;;;5053380;28;1769;-70
2021/04/07 14:04:36;;;;;;;;;;;21.20;53.70;;;;;;5051809;28;1890;-68
2021/04/07 14:07:02;;;;;;;;;;;21.20;53.80;;;;;;5052948;28;1373;-69
2021/04/07 14:09:27;;;;;;;;;;;21.20;53.80;;;;;;5051618;28;1282;-68
2021/04/07 14:11:53;;;;;;;;;;;21.20;53.90;;;;;;5053205;28;1422;-68
2021/04/07 14:14:18;;;;;;;;;;;21.10;53.90;;;;;;5052200;28;1299;-68
2021/04/07 14:16:44;;;;;;;;;;;21.10;53.90;;;;;;5052514;28;1131;-68
2021/04/07 14:19:09;;;;;;;;;;;21.10;53.90;;;;;;5052790;28;1263;-68
2021/04/07 14:21:34;;;;;;;;;;;21.10;54.00;;;;;;5052953;28;1254;-68
2021/04/07 14:24:00;;;;;;;;;;;21.10;54.00;;;;;;5052678;28;1906;-68
2021/04/07 14:26:25;;;;;;;;;;;21.10;54.00;;;;;;5072076;22;2545;-69
2021/04/07 14:28:51;;;;;;;;;;;21.10;54.10;;;;;;5052372;28;1275;-72
2021/04/07 14:31:16;;;;;;;;;;;21.10;54.10;;;;;;5053435;28;1432;-72